Terminal Aerodrome Forecast
Issued by NWS

Home | Current Version | Previous Version | Text Only | Print | Product List | Glossary On
Versions: 1 2 3 4 5 6 7 8 9 10 11 12 13 14 15 16 17 18 19 20 21 22
211
FTUS43 KIND 240421 AAA
TAFBMG
TAF AMD
KBMG 240421Z 2404/2424 32009KT 5SM BR OVC006
     FM240700 32007KT 5SM BR OVC010
     FM241700 26004KT P6SM BKN025
     FM241900 21004KT P6SM BKN035
     FM242300 16006KT P6SM SCT070 BKN120
      AMD LTD TO CLD VIS AND WIND 2402/2414=

USA.gov is the U.S. government's official web portal to all federal, state and local government web resources and services.